sensor_id;sensor_type;location;lat;lon;timestamp;P1;durP1;ratioP1;P2;durP2;ratioP2
66761;SDS011;53672;48.176;16.338;2022-08-01T00:04:26;6.87;;;4.93;;
66761;SDS011;53672;48.176;16.338;2022-08-01T00:09:28;7.07;;;5.30;;
66761;SDS011;53672;48.176;16.338;2022-08-01T00:14:28;6.80;;;4.90;;
66761;SDS011;53672;48.176;16.338;2022-08-01T00:19:28;6.57;;;4.73;;
66761;SDS011;53672;48.176;16.338;2022-08-01T00:24:30;7.27;;;5.40;;
66761;SDS011;53672;48.176;16.338;2022-08-01T00:29:31;7.57;;;5.35;;
66761;SDS011;53672;48.176;16.338;2022-08-01T00:34:31;6.60;;;5.00;;
66761;SDS011;53672;48.176;16.338;2022-08-01T00:39:34;6.15;;;4.90;;
66761;SDS011;53672;48.176;16.338;2022-08-01T00:44:34;7.90;;;4.80;;
66761;SDS011;53672;48.176;16.338;2022-08-01T00:49:35;8.77;;;4.95;;
66761;SDS011;53672;48.176;16.338;2022-08-01T00:54:37;5.63;;;4.47;;
66761;SDS011;53672;48.176;16.338;2022-08-01T00:59:39;7.17;;;5.10;;
66761;SDS011;53672;48.176;16.338;2022-08-01T01:04:40;7.05;;;4.95;;
66761;SDS011;53672;48.176;16.338;2022-08-01T01:09:44;8.00;;;5.10;;
66761;SDS011;53672;48.176;16.338;2022-08-01T01:14:51;8.13;;;5.10;;
66761;SDS011;53672;48.176;16.338;2022-08-01T01:19:57;7.70;;;5.00;;
66761;SDS011;53672;48.176;16.338;2022-08-01T01:25:17;7.25;;;5.70;;
66761;SDS011;53672;48.176;16.338;2022-08-01T01:30:33;6.77;;;4.97;;
66761;SDS011;53672;48.176;16.338;2022-08-01T01:35:36;7.50;;;5.30;;
66761;SDS011;53672;48.176;16.338;2022-08-01T01:40:41;6.82;;;4.95;;
66761;SDS011;53672;48.176;16.338;2022-08-01T01:45:45;7.10;;;5.60;;
66761;SDS011;53672;48.176;16.338;2022-08-01T01:50:47;6.43;;;5.15;;
66761;SDS011;53672;48.176;16.338;2022-08-01T01:55:50;9.10;;;5.23;;
66761;SDS011;53672;48.176;16.338;2022-08-01T02:00:55;8.13;;;5.10;;
66761;SDS011;53672;48.176;16.338;2022-08-01T02:05:57;7.05;;;5.22;;
66761;SDS011;53672;48.176;16.338;2022-08-01T02:10:59;6.67;;;5.27;;
66761;SDS011;53672;48.176;16.338;2022-08-01T02:16:04;7.60;;;5.50;;
66761;SDS011;53672;48.176;16.338;2022-08-01T02:21:05;6.50;;;5.10;;
66761;SDS011;53672;48.176;16.338;2022-08-01T02:26:09;7.47;;;5.70;;
66761;SDS011;53672;48.176;16.338;2022-08-01T02:31:16;6.68;;;5.03;;
66761;SDS011;53672;48.176;16.338;2022-08-01T02:36:18;7.00;;;4.90;;
66761;SDS011;53672;48.176;16.338;2022-08-01T02:41:20;6.38;;;4.95;;
66761;SDS011;53672;48.176;16.338;2022-08-01T02:46:25;6.97;;;5.27;;
66761;SDS011;53672;48.176;16.338;2022-08-01T02:51:29;7.00;;;4.90;;
66761;SDS011;53672;48.176;16.338;2022-08-01T02:56:31;6.82;;;5.13;;
66761;SDS011;53672;48.176;16.338;2022-08-01T03:01:34;7.00;;;5.10;;
66761;SDS011;53672;48.176;16.338;2022-08-01T03:06:36;6.63;;;5.20;;
66761;SDS011;53672;48.176;16.338;2022-08-01T03:11:37;8.17;;;5.60;;
66761;SDS011;53672;48.176;16.338;2022-08-01T03:16:43;7.43;;;5.40;;
66761;SDS011;53672;48.176;16.338;2022-08-01T03:21:46;7.18;;;4.90;;
66761;SDS011;53672;48.176;16.338;2022-08-01T03:26:48;6.80;;;4.97;;
66761;SDS011;53672;48.176;16.338;2022-08-01T03:31:51;6.43;;;4.93;;
66761;SDS011;53672;48.176;16.338;2022-08-01T03:36:52;8.17;;;5.00;;
66761;SDS011;53672;48.176;16.338;2022-08-01T03:41:58;7.13;;;4.80;;
66761;SDS011;53672;48.176;16.338;2022-08-01T03:47:04;7.15;;;4.80;;
66761;SDS011;53672;48.176;16.338;2022-08-01T03:52:07;7.00;;;5.00;;
66761;SDS011;53672;48.176;16.338;2022-08-01T03:57:08;8.32;;;4.82;;
66761;SDS011;53672;48.176;16.338;2022-08-01T04:02:11;9.17;;;4.90;;
66761;SDS011;53672;48.176;16.338;2022-08-01T04:07:22;6.47;;;4.85;;
66761;SDS011;53672;48.176;16.338;2022-08-01T04:12:24;8.05;;;5.10;;
66761;SDS011;53672;48.176;16.338;2022-08-01T04:17:26;6.00;;;4.87;;
66761;SDS011;53672;48.176;16.338;2022-08-01T04:22:26;6.40;;;4.63;;
66761;SDS011;53672;48.176;16.338;2022-08-01T04:27:28;7.00;;;5.00;;
66761;SDS011;53672;48.176;16.338;2022-08-01T04:32:33;6.47;;;4.68;;
66761;SDS011;53672;48.176;16.338;2022-08-01T04:37:37;7.60;;;4.82;;
66761;SDS011;53672;48.176;16.338;2022-08-01T04:42:40;8.63;;;4.80;;
66761;SDS011;53672;48.176;16.338;2022-08-01T04:47:42;6.75;;;4.70;;
66761;SDS011;53672;48.176;16.338;2022-08-01T04:52:42;6.88;;;4.80;;
66761;SDS011;53672;48.176;16.338;2022-08-01T04:57:44;6.63;;;4.63;;
66761;SDS011;53672;48.176;16.338;2022-08-01T05:02:47;8.32;;;4.50;;
66761;SDS011;53672;48.176;16.338;2022-08-01T05:07:48;6.27;;;4.47;;
66761;SDS011;53672;48.176;16.338;2022-08-01T05:12:48;7.50;;;4.30;;
66761;SDS011;53672;48.176;16.338;2022-08-01T05:17:50;7.70;;;4.53;;
66761;SDS011;53672;48.176;16.338;2022-08-01T05:22:50;6.70;;;4.57;;
66761;SDS011;53672;48.176;16.338;2022-08-01T05:27:51;6.23;;;4.17;;
66761;SDS011;53672;48.176;16.338;2022-08-01T05:32:53;6.10;;;4.40;;
66761;SDS011;53672;48.176;16.338;2022-08-01T05:37:53;5.88;;;4.13;;
66761;SDS011;53672;48.176;16.338;2022-08-01T05:42:54;7.20;;;4.40;;
66761;SDS011;53672;48.176;16.338;2022-08-01T05:47:55;6.40;;;4.20;;
66761;SDS011;53672;48.176;16.338;2022-08-01T05:52:56;9.50;;;5.82;;
66761;SDS011;53672;48.176;16.338;2022-08-01T05:57:56;9.23;;;5.77;;
66761;SDS011;53672;48.176;16.338;2022-08-01T06:02:58;6.40;;;4.30;;
66761;SDS011;53672;48.176;16.338;2022-08-01T06:07:58;5.70;;;4.07;;
66761;SDS011;53672;48.176;16.338;2022-08-01T06:12:59;6.50;;;4.20;;
66761;SDS011;53672;48.176;16.338;2022-08-01T06:18:01;6.27;;;3.90;;
66761;SDS011;53672;48.176;16.338;2022-08-01T06:23:01;5.57;;;3.50;;
66761;SDS011;53672;48.176;16.338;2022-08-01T06:28:02;6.70;;;4.00;;
66761;SDS011;53672;48.176;16.338;2022-08-01T06:33:04;7.22;;;4.20;;
66761;SDS011;53672;48.176;16.338;2022-08-01T06:38:05;6.67;;;4.50;;
66761;SDS011;53672;48.176;16.338;2022-08-01T06:43:05;7.97;;;4.20;;
66761;SDS011;53672;48.176;16.338;2022-08-01T06:48:07;7.70;;;4.43;;
66761;SDS011;53672;48.176;16.338;2022-08-01T06:53:08;5.83;;;4.27;;
66761;SDS011;53672;48.176;16.338;2022-08-01T06:58:08;6.40;;;3.73;;
66761;SDS011;53672;48.176;16.338;2022-08-01T07:03:10;7.15;;;4.18;;
66761;SDS011;53672;48.176;16.338;2022-08-01T07:08:10;6.20;;;3.70;;
66761;SDS011;53672;48.176;16.338;2022-08-01T07:13:11;6.90;;;4.50;;
66761;SDS011;53672;48.176;16.338;2022-08-01T07:18:12;7.30;;;3.97;;
66761;SDS011;53672;48.176;16.338;2022-08-01T07:23:13;5.10;;;3.35;;
66761;SDS011;53672;48.176;16.338;2022-08-01T07:28:13;8.37;;;4.27;;
66761;SDS011;53672;48.176;16.338;2022-08-01T07:33:15;6.87;;;4.00;;
66761;SDS011;53672;48.176;16.338;2022-08-01T07:38:16;5.95;;;3.95;;
66761;SDS011;53672;48.176;16.338;2022-08-01T07:43:16;5.30;;;3.67;;
66761;SDS011;53672;48.176;16.338;2022-08-01T07:48:18;6.63;;;4.40;;
66761;SDS011;53672;48.176;16.338;2022-08-01T07:53:18;5.70;;;3.80;;
66761;SDS011;53672;48.176;16.338;2022-08-01T07:58:19;5.43;;;4.00;;
66761;SDS011;53672;48.176;16.338;2022-08-01T08:03:21;7.50;;;5.00;;
66761;SDS011;53672;48.176;16.338;2022-08-01T08:08:21;6.80;;;4.53;;
66761;SDS011;53672;48.176;16.338;2022-08-01T08:13:22;5.63;;;3.90;;
66761;SDS011;53672;48.176;16.338;2022-08-01T08:18:24;5.53;;;3.60;;
66761;SDS011;53672;48.176;16.338;2022-08-01T08:23:24;9.03;;;5.07;;
66761;SDS011;53672;48.176;16.338;2022-08-01T08:28:24;6.57;;;3.53;;
66761;SDS011;53672;48.176;16.338;2022-08-01T08:33:26;5.27;;;3.57;;
66761;SDS011;53672;48.176;16.338;2022-08-01T08:38:27;5.65;;;3.30;;
66761;SDS011;53672;48.176;16.338;2022-08-01T08:43:28;5.97;;;3.40;;
66761;SDS011;53672;48.176;16.338;2022-08-01T08:48:29;5.53;;;3.67;;
66761;SDS011;53672;48.176;16.338;2022-08-01T08:53:31;6.65;;;4.78;;
66761;SDS011;53672;48.176;16.338;2022-08-01T08:58:32;6.17;;;3.90;;
66761;SDS011;53672;48.176;16.338;2022-08-01T09:03:38;5.95;;;3.72;;
66761;SDS011;53672;48.176;16.338;2022-08-01T09:08:38;6.03;;;4.28;;
66761;SDS011;53672;48.176;16.338;2022-08-01T09:13:39;7.50;;;4.53;;
66761;SDS011;53672;48.176;16.338;2022-08-01T09:18:40;6.37;;;4.00;;
66761;SDS011;53672;48.176;16.338;2022-08-01T09:23:42;5.40;;;4.03;;
66761;SDS011;53672;48.176;16.338;2022-08-01T09:28:44;6.70;;;4.00;;
66761;SDS011;53672;48.176;16.338;2022-08-01T09:33:54;6.80;;;4.03;;
66761;SDS011;53672;48.176;16.338;2022-08-01T09:38:55;5.90;;;4.40;;
66761;SDS011;53672;48.176;16.338;2022-08-01T09:43:56;5.53;;;4.50;;
66761;SDS011;53672;48.176;16.338;2022-08-01T09:48:59;6.40;;;4.73;;
66761;SDS011;53672;48.176;16.338;2022-08-01T09:54:00;7.22;;;4.57;;
66761;SDS011;53672;48.176;16.338;2022-08-01T09:59:02;6.65;;;4.30;;
66761;SDS011;53672;48.176;16.338;2022-08-01T10:04:08;6.03;;;4.40;;
66761;SDS011;53672;48.176;16.338;2022-08-01T10:09:10;6.50;;;4.97;;
66761;SDS011;53672;48.176;16.338;2022-08-01T10:14:12;6.47;;;4.60;;
66761;SDS011;53672;48.176;16.338;2022-08-01T10:19:14;7.07;;;4.77;;
66761;SDS011;53672;48.176;16.338;2022-08-01T10:24:14;6.22;;;4.25;;
66761;SDS011;53672;48.176;16.338;2022-08-01T10:29:15;6.60;;;4.55;;
66761;SDS011;53672;48.176;16.338;2022-08-01T10:34:19;5.97;;;4.75;;
66761;SDS011;53672;48.176;16.338;2022-08-01T10:39:20;7.55;;;4.40;;
66761;SDS011;53672;48.176;16.338;2022-08-01T10:44:22;5.90;;;4.30;;
66761;SDS011;53672;48.176;16.338;2022-08-01T10:49:26;5.63;;;4.05;;
66761;SDS011;53672;48.176;16.338;2022-08-01T10:54:29;6.88;;;3.90;;
66761;SDS011;53672;48.176;16.338;2022-08-01T10:59:47;5.00;;;4.13;;
66761;SDS011;53672;48.176;16.338;2022-08-01T11:04:51;6.50;;;3.90;;
66761;SDS011;53672;48.176;16.338;2022-08-01T11:09:58;4.93;;;4.00;;
66761;SDS011;53672;48.176;16.338;2022-08-01T11:20:25;6.07;;;3.95;;
66761;SDS011;53672;48.176;16.338;2022-08-01T11:25:28;5.05;;;3.97;;
66761;SDS011;53672;48.176;16.338;2022-08-01T11:36:28;5.50;;;3.60;;
66761;SDS011;53672;48.176;16.338;2022-08-01T11:41:29;4.30;;;3.42;;
66761;SDS011;53672;48.176;16.338;2022-08-01T11:52:05;6.85;;;4.15;;
66761;SDS011;53672;48.176;16.338;2022-08-01T11:57:07;6.30;;;4.70;;
66761;SDS011;53672;48.176;16.338;2022-08-01T12:02:15;6.93;;;4.00;;
66761;SDS011;53672;48.176;16.338;2022-08-01T12:07:22;4.88;;;3.90;;
66761;SDS011;53672;48.176;16.338;2022-08-01T12:12:23;5.50;;;4.10;;
66761;SDS011;53672;48.176;16.338;2022-08-01T12:17:30;7.20;;;4.10;;
66761;SDS011;53672;48.176;16.338;2022-08-01T12:22:33;6.03;;;4.20;;
66761;SDS011;53672;48.176;16.338;2022-08-01T12:27:34;6.15;;;4.75;;
66761;SDS011;53672;48.176;16.338;2022-08-01T12:32:36;6.57;;;5.20;;
66761;SDS011;53672;48.176;16.338;2022-08-01T12:37:40;4.82;;;3.58;;
66761;SDS011;53672;48.176;16.338;2022-08-01T12:42:41;4.80;;;2.90;;
66761;SDS011;53672;48.176;16.338;2022-08-01T12:47:43;4.50;;;2.90;;
66761;SDS011;53672;48.176;16.338;2022-08-01T12:52:46;4.57;;;2.80;;
66761;SDS011;53672;48.176;16.338;2022-08-01T12:57:48;4.80;;;2.60;;
66761;SDS011;53672;48.176;16.338;2022-08-01T13:02:50;4.35;;;2.88;;
66761;SDS011;53672;48.176;16.338;2022-08-01T13:08:01;4.55;;;2.80;;
66761;SDS011;53672;48.176;16.338;2022-08-01T13:13:11;5.27;;;3.30;;
66761;SDS011;53672;48.176;16.338;2022-08-01T13:18:22;7.00;;;4.32;;
66761;SDS011;53672;48.176;16.338;2022-08-01T13:23:25;5.73;;;3.60;;
66761;SDS011;53672;48.176;16.338;2022-08-01T13:28:26;6.20;;;3.80;;
66761;SDS011;53672;48.176;16.338;2022-08-01T13:33:28;5.55;;;3.70;;
66761;SDS011;53672;48.176;16.338;2022-08-01T13:38:42;5.70;;;3.57;;
66761;SDS011;53672;48.176;16.338;2022-08-01T13:43:43;6.95;;;3.65;;
66761;SDS011;53672;48.176;16.338;2022-08-01T13:48:43;4.57;;;2.90;;
66761;SDS011;53672;48.176;16.338;2022-08-01T13:53:45;4.13;;;2.60;;
66761;SDS011;53672;48.176;16.338;2022-08-01T13:58:46;4.50;;;2.45;;
66761;SDS011;53672;48.176;16.338;2022-08-01T14:03:46;4.20;;;2.60;;
66761;SDS011;53672;48.176;16.338;2022-08-01T14:08:48;3.50;;;2.30;;
66761;SDS011;53672;48.176;16.338;2022-08-01T14:13:49;3.80;;;2.67;;
66761;SDS011;53672;48.176;16.338;2022-08-01T14:18:49;4.27;;;2.30;;
66761;SDS011;53672;48.176;16.338;2022-08-01T14:23:51;3.90;;;2.50;;
66761;SDS011;53672;48.176;16.338;2022-08-01T14:28:52;12.35;;;3.22;;
66761;SDS011;53672;48.176;16.338;2022-08-01T14:33:52;3.93;;;2.30;;
66761;SDS011;53672;48.176;16.338;2022-08-01T14:38:54;3.50;;;2.30;;
66761;SDS011;53672;48.176;16.338;2022-08-01T14:43:55;3.97;;;2.67;;
66761;SDS011;53672;48.176;16.338;2022-08-01T14:48:55;3.57;;;2.43;;
66761;SDS011;53672;48.176;16.338;2022-08-01T14:53:57;4.70;;;2.80;;
66761;SDS011;53672;48.176;16.338;2022-08-01T14:58:57;6.90;;;2.90;;
66761;SDS011;53672;48.176;16.338;2022-08-01T15:03:58;4.63;;;2.70;;
66761;SDS011;53672;48.176;16.338;2022-08-01T15:09:00;5.38;;;2.97;;
66761;SDS011;53672;48.176;16.338;2022-08-01T15:14:00;4.83;;;2.80;;
66761;SDS011;53672;48.176;16.338;2022-08-01T15:19:01;5.50;;;3.27;;
66761;SDS011;53672;48.176;16.338;2022-08-01T15:24:04;5.87;;;3.00;;
66761;SDS011;53672;48.176;16.338;2022-08-01T15:29:05;5.22;;;2.88;;
66761;SDS011;53672;48.176;16.338;2022-08-01T15:34:05;4.07;;;2.93;;
66761;SDS011;53672;48.176;16.338;2022-08-01T15:39:07;4.33;;;3.10;;
66761;SDS011;53672;48.176;16.338;2022-08-01T15:44:08;4.70;;;3.00;;
66761;SDS011;53672;48.176;16.338;2022-08-01T15:49:08;5.53;;;3.33;;
66761;SDS011;53672;48.176;16.338;2022-08-01T15:54:10;4.47;;;3.07;;
66761;SDS011;53672;48.176;16.338;2022-08-01T15:59:11;5.35;;;3.17;;
66761;SDS011;53672;48.176;16.338;2022-08-01T16:04:12;5.70;;;3.57;;
66761;SDS011;53672;48.176;16.338;2022-08-01T16:09:14;5.07;;;3.53;;
66761;SDS011;53672;48.176;16.338;2022-08-01T16:14:15;6.18;;;3.50;;
66761;SDS011;53672;48.176;16.338;2022-08-01T16:19:15;6.47;;;3.83;;
66761;SDS011;53672;48.176;16.338;2022-08-01T16:24:17;5.50;;;3.73;;
66761;SDS011;53672;48.176;16.338;2022-08-01T16:29:17;5.60;;;3.00;;
66761;SDS011;53672;48.176;16.338;2022-08-01T16:34:18;5.00;;;3.17;;
66761;SDS011;53672;48.176;16.338;2022-08-01T16:39:20;5.93;;;2.90;;
66761;SDS011;53672;48.176;16.338;2022-08-01T16:44:20;5.30;;;2.97;;
66761;SDS011;53672;48.176;16.338;2022-08-01T16:49:21;4.53;;;3.17;;
66761;SDS011;53672;48.176;16.338;2022-08-01T16:54:24;4.40;;;2.70;;
66761;SDS011;53672;48.176;16.338;2022-08-01T16:59:24;4.45;;;2.70;;
66761;SDS011;53672;48.176;16.338;2022-08-01T17:04:25;4.50;;;2.83;;
66761;SDS011;53672;48.176;16.338;2022-08-01T17:09:26;4.97;;;2.90;;
66761;SDS011;53672;48.176;16.338;2022-08-01T17:14:27;5.38;;;3.00;;
66761;SDS011;53672;48.176;16.338;2022-08-01T17:19:27;5.03;;;2.70;;
66761;SDS011;53672;48.176;16.338;2022-08-01T17:24:29;6.80;;;3.67;;
66761;SDS011;53672;48.176;16.338;2022-08-01T17:29:30;4.73;;;2.67;;
66761;SDS011;53672;48.176;16.338;2022-08-01T17:34:30;5.07;;;2.60;;
66761;SDS011;53672;48.176;16.338;2022-08-01T17:39:32;5.35;;;3.17;;
66761;SDS011;53672;48.176;16.338;2022-08-01T17:44:33;5.40;;;2.90;;
66761;SDS011;53672;48.176;16.338;2022-08-01T17:49:34;4.32;;;2.53;;
66761;SDS011;53672;48.176;16.338;2022-08-01T17:54:35;4.53;;;2.57;;
66761;SDS011;53672;48.176;16.338;2022-08-01T17:59:36;7.03;;;4.20;;
66761;SDS011;53672;48.176;16.338;2022-08-01T18:04:36;5.57;;;2.87;;
66761;SDS011;53672;48.176;16.338;2022-08-01T18:09:38;6.97;;;5.00;;
66761;SDS011;53672;48.176;16.338;2022-08-01T18:14:39;6.55;;;3.53;;
66761;SDS011;53672;48.176;16.338;2022-08-01T18:19:39;4.50;;;2.70;;
66761;SDS011;53672;48.176;16.338;2022-08-01T18:24:41;6.15;;;2.70;;
66761;SDS011;53672;48.176;16.338;2022-08-01T18:29:42;6.65;;;2.95;;
66761;SDS011;53672;48.176;16.338;2022-08-01T18:34:42;3.93;;;2.43;;
66761;SDS011;53672;48.176;16.338;2022-08-01T18:39:44;8.10;;;3.80;;
66761;SDS011;53672;48.176;16.338;2022-08-01T18:44:44;9.27;;;5.75;;
66761;SDS011;53672;48.176;16.338;2022-08-01T18:49:45;6.53;;;3.27;;
66761;SDS011;53672;48.176;16.338;2022-08-01T18:54:46;8.00;;;3.40;;
66761;SDS011;53672;48.176;16.338;2022-08-01T18:59:47;4.97;;;3.20;;
66761;SDS011;53672;48.176;16.338;2022-08-01T19:04:47;5.40;;;2.70;;
66761;SDS011;53672;48.176;16.338;2022-08-01T19:09:49;4.67;;;2.90;;
66761;SDS011;53672;48.176;16.338;2022-08-01T19:14:50;5.30;;;2.97;;
66761;SDS011;53672;48.176;16.338;2022-08-01T19:19:51;5.25;;;2.85;;
66761;SDS011;53672;48.176;16.338;2022-08-01T19:24:55;7.60;;;3.13;;
66761;SDS011;53672;48.176;16.338;2022-08-01T19:29:56;7.20;;;4.47;;
66761;SDS011;53672;48.176;16.338;2022-08-01T19:35:03;6.65;;;3.97;;
66761;SDS011;53672;48.176;16.338;2022-08-01T19:40:07;5.30;;;3.42;;
66761;SDS011;53672;48.176;16.338;2022-08-01T19:45:08;5.15;;;3.25;;
66761;SDS011;53672;48.176;16.338;2022-08-01T19:50:09;5.60;;;3.20;;
66761;SDS011;53672;48.176;16.338;2022-08-01T19:55:11;14.73;;;8.20;;
66761;SDS011;53672;48.176;16.338;2022-08-01T20:00:13;5.10;;;3.25;;
66761;SDS011;53672;48.176;16.338;2022-08-01T20:05:14;5.80;;;3.40;;
66761;SDS011;53672;48.176;16.338;2022-08-01T20:10:16;6.05;;;3.63;;
66761;SDS011;53672;48.176;16.338;2022-08-01T20:15:19;4.83;;;3.00;;
66761;SDS011;53672;48.176;16.338;2022-08-01T20:20:21;5.95;;;3.40;;
66761;SDS011;53672;48.176;16.338;2022-08-01T20:25:23;6.40;;;3.63;;
66761;SDS011;53672;48.176;16.338;2022-08-01T20:30:26;6.78;;;3.58;;
66761;SDS011;53672;48.176;16.338;2022-08-01T20:35:28;6.18;;;3.60;;
66761;SDS011;53672;48.176;16.338;2022-08-01T20:40:31;6.55;;;3.80;;
66761;SDS011;53672;48.176;16.338;2022-08-01T20:45:32;10.30;;;9.30;;
66761;SDS011;53672;48.176;16.338;2022-08-01T20:50:33;9.02;;;7.63;;
66761;SDS011;53672;48.176;16.338;2022-08-01T20:55:41;7.57;;;5.50;;
66761;SDS011;53672;48.176;16.338;2022-08-01T21:00:44;8.82;;;6.40;;
66761;SDS011;53672;48.176;16.338;2022-08-01T21:05:54;11.50;;;10.03;;
66761;SDS011;53672;48.176;16.338;2022-08-01T21:10:58;10.82;;;8.90;;
66761;SDS011;53672;48.176;16.338;2022-08-01T21:16:02;8.25;;;5.55;;
66761;SDS011;53672;48.176;16.338;2022-08-01T21:21:08;5.75;;;3.72;;
66761;SDS011;53672;48.176;16.338;2022-08-01T21:26:14;5.70;;;3.42;;
66761;SDS011;53672;48.176;16.338;2022-08-01T21:31:19;8.13;;;3.63;;
66761;SDS011;53672;48.176;16.338;2022-08-01T21:36:20;6.63;;;3.55;;
66761;SDS011;53672;48.176;16.338;2022-08-01T21:41:24;5.68;;;3.80;;
66761;SDS011;53672;48.176;16.338;2022-08-01T21:46:25;5.18;;;3.50;;
66761;SDS011;53672;48.176;16.338;2022-08-01T21:51:31;5.63;;;3.38;;
66761;SDS011;53672;48.176;16.338;2022-08-01T21:56:44;6.33;;;3.57;;
66761;SDS011;53672;48.176;16.338;2022-08-01T22:01:57;6.65;;;3.60;;
66761;SDS011;53672;48.176;16.338;2022-08-01T22:07:01;6.00;;;3.60;;
66761;SDS011;53672;48.176;16.338;2022-08-01T22:12:04;6.78;;;3.53;;
66761;SDS011;53672;48.176;16.338;2022-08-01T22:17:06;6.17;;;3.67;;
66761;SDS011;53672;48.176;16.338;2022-08-01T22:22:09;7.00;;;3.30;;
66761;SDS011;53672;48.176;16.338;2022-08-01T22:27:11;8.60;;;3.80;;
66761;SDS011;53672;48.176;16.338;2022-08-01T22:32:13;7.63;;;3.70;;
66761;SDS011;53672;48.176;16.338;2022-08-01T22:37:13;6.10;;;3.73;;
66761;SDS011;53672;48.176;16.338;2022-08-01T22:42:15;6.03;;;3.57;;
66761;SDS011;53672;48.176;16.338;2022-08-01T22:47:18;5.45;;;3.40;;
66761;SDS011;53672;48.176;16.338;2022-08-01T22:52:30;7.25;;;3.58;;
66761;SDS011;53672;48.176;16.338;2022-08-01T22:57:39;5.60;;;3.50;;
66761;SDS011;53672;48.176;16.338;2022-08-01T23:02:46;5.45;;;2.92;;
66761;SDS011;53672;48.176;16.338;2022-08-01T23:07:52;5.00;;;2.90;;
66761;SDS011;53672;48.176;16.338;2022-08-01T23:12:55;5.13;;;2.50;;
66761;SDS011;53672;48.176;16.338;2022-08-01T23:17:55;5.57;;;2.60;;
66761;SDS011;53672;48.176;16.338;2022-08-01T23:22:56;4.13;;;2.28;;
66761;SDS011;53672;48.176;16.338;2022-08-01T23:27:59;5.28;;;2.60;;
66761;SDS011;53672;48.176;16.338;2022-08-01T23:33:00;4.90;;;2.53;;
66761;SDS011;53672;48.176;16.338;2022-08-01T23:38:01;5.28;;;2.60;;
66761;SDS011;53672;48.176;16.338;2022-08-01T23:43:03;4.53;;;2.30;;
66761;SDS011;53672;48.176;16.338;2022-08-01T23:48:05;4.97;;;2.47;;
66761;SDS011;53672;48.176;16.338;2022-08-01T23:53:05;5.22;;;2.70;;
66761;SDS011;53672;48.176;16.338;2022-08-01T23:58:07;4.60;;;2.40;;
